Ventura — ZCDT2 — position and weather

sailwx.info

Track history (hours):
 
Tides and Currents Weather Stations Pressure Air Temp Water Temp Dewpoint Dewpoint Depression Visibility Wind Speed Wind Dir Waves Ship Positions

Ventura

Last reported at 2019-Nov-20 04:00 UTC. Time now 2019-Nov-20 09:25 UTC.
Position N 39°12' W 012°54'.

Length 289 m; draft 8.6 m.

Type: Passenger vessel. MMSI: 310562000.

Wind from 300 at 17 knots

Barometer 1010.1 mb
Air temperature 14.0 ° C
Visibility: greater than 10.8 NM
Dewpoint 14.0 ° C
Water temperature 18.0 ° C

Date/timePositionNaut miles runAvg speedWind from/ knotsBaromVisibWave heightAir tempDewpointWater temp
2019-Nov-20 04:00N 39°12' W 012°54'61615.6 300 / 171010.110.8 14.014.018.0
2019-Nov-18 12:28N 48°06' W 005°51'1912.9
2019-Nov-18 11:00N 48°22' W 005°34'2315.4
2019-Nov-18 09:30N 48°40' W 005°12'8515.2
2019-Nov-18 03:54N 49°37' W 003°35'1517.0
2019-Nov-18 03:01N 49°47' W 003°18'1716.8
2019-Nov-18 02:00N 49°57' W 002°57'1615.9
2019-Nov-18 00:58N 50°03' W 002°33'3014.1
2019-Nov-17 22:50N 50°16' W 001°51'1713.8
2019-Nov-17 21:34N 50°24' W 001°27'2314.4
2019-Nov-17 20:00N 50°38' W 000°59'24 9.6
2019-Nov-17 17:30N 50°54' W 001°26'0 0.4
2019-Nov-17 17:00N 50°54' W 001°26'0 0.0
2019-Nov-17 07:30N 50°54' W 001°26'13 4.4
2019-Nov-17 04:30N 50°46' W 001°10'816.5
2019-Nov-17 04:00N 50°42' W 000°58'611.8
2019-Nov-17 03:30N 50°39' W 000°51'4118.0
2019-Nov-17 01:15N 50°30' E 000°12'6316.7
2019-Nov-16 21:30N 51°06' E 001°33'1919.2
2019-Nov-16 20:30N 51°20' E 001°53'1514.5
2019-Nov-16 19:30N 51°21' E 002°16'917.7
2019-Nov-16 19:00N 51°23' E 002°29'714.4
2019-Nov-16 18:30N 51°23' E 002°41'1414.3
2019-Nov-16 17:30N 51°25' E 003°04'713.0
2019-Nov-16 17:00N 51°21' E 003°12'0 0.5
2019-Nov-16 16:00N 51°20' E 003°12'0 0.0
2019-Nov-16 15:30N 51°20' E 003°12'0 0.0
2019-Nov-16 07:30N 51°20' E 003°12'0 0.2
2019-Nov-16 06:30N 51°21' E 003°13'3912.9
2019-Nov-16 03:30N 51°17' E 002°11'917.8
2019-Nov-16 03:00N 51°12' E 001°59'918.2
2019-Nov-16 02:30N 51°08' E 001°46'7818.3
2019-Nov-15 22:15N 50°22' E 000°06'4218.6
2019-Nov-15 20:00N 50°39' W 000°54'1515.2
2019-Nov-15 19:00N 50°46' W 001°15'9 9.4
2019-Nov-15 18:01N 50°53' W 001°24'1 0.5
2019-Nov-15 15:30N 50°54' W 001°26'0 0.0
2019-Nov-15 13:30N 50°54' W 001°26'0 0.0
2019-Nov-15 12:00N 50°54' W 001°26'0 0.0
2019-Nov-15 09:30N 50°54' W 001°26'0 0.0
2019-Nov-15 08:30N 50°54' W 001°26'0 0.0
2019-Nov-15 07:00N 50°54' W 001°26'11 4.3
2019-Nov-15 04:31N 50°46' W 001°15'1212.2
2019-Nov-15 03:30N 50°39' W 000°59'5413.7
2019-Nov-14 23:35N 50°12' W 002°12'1913.8
2019-Nov-14 22:12N 49°56' W 002°28'5018.7
2019-Nov-14 19:30N 49°30' W 003°34'27616.7
2019-Nov-14 03:00N 45°36' W 007°12'406 9.7 280 / 52996.110.8 9.0 6.914.9
2019-Nov-12 08:56N 39°21' W 010°44'2316.4
2019-Nov-12 07:30N 38°58' W 010°50'2516.6
2019-Nov-12 06:00N 38°34' W 010°56'4120.3
2019-Nov-12 04:00N 37°54' W 011°06'0 1.0 350 / 201020.810.8 16.513.919.5
2019-Nov-12 03:31N 37°54' W 011°06'1716.6
2019-Nov-12 02:30N 37°38' W 011°11'1716.7
2019-Nov-12 01:31N 37°21' W 011°15'2516.8
2019-Nov-12 00:00N 36°57' W 011°21'4617.2
2019-Nov-11 21:21N 36°12' W 011°32'3626.3
2019-Nov-11 20:00N 35°36' W 011°36'39815.6 350 / 231021.910.8 19.518.720.9
2019-Nov-10 18:30N 29°07' W 013°14'18 1.8
2019-Nov-10 08:34N 28°58' W 013°32'12 4.8
2019-Nov-10 06:00N 28°48' W 013°41'  
Track history (hours):
 
Tides and Currents Weather Stations Pressure Air Temp Water Temp Dewpoint Dewpoint Depression Visibility Wind Speed Wind Dir Waves Ship Positions

Ventura

Last reported at 2019-Nov-20 04:00 UTC. Time now 2019-Nov-20 09:25 UTC.
Position N 39°12' W 012°54'.

Length 289 m; draft 8.6 m.

Type: Passenger vessel. MMSI: 310562000.

Wind from 300 at 17 knots

Barometer 1010.1 mb
Air temperature 14.0 ° C
Visibility: greater than 10.8 NM
Dewpoint 14.0 ° C
Water temperature 18.0 ° C

Date/timePositionNaut miles runAvg speedWind from/ knotsBaromVisibWave heightAir tempDewpointWater temp
2019-Nov-20 04:00N 39°12' W 012°54'61615.6 300 / 171010.110.8 14.014.018.0
2019-Nov-18 12:28N 48°06' W 005°51'1912.9
2019-Nov-18 11:00N 48°22' W 005°34'2315.4
2019-Nov-18 09:30N 48°40' W 005°12'8515.2
2019-Nov-18 03:54N 49°37' W 003°35'1517.0
2019-Nov-18 03:01N 49°47' W 003°18'1716.8
2019-Nov-18 02:00N 49°57' W 002°57'1615.9
2019-Nov-18 00:58N 50°03' W 002°33'3014.1
2019-Nov-17 22:50N 50°16' W 001°51'1713.8
2019-Nov-17 21:34N 50°24' W 001°27'2314.4
2019-Nov-17 20:00N 50°38' W 000°59'24 9.6
2019-Nov-17 17:30N 50°54' W 001°26'0 0.4
2019-Nov-17 17:00N 50°54' W 001°26'0 0.0
2019-Nov-17 07:30N 50°54' W 001°26'13 4.4
2019-Nov-17 04:30N 50°46' W 001°10'816.5
2019-Nov-17 04:00N 50°42' W 000°58'611.8
2019-Nov-17 03:30N 50°39' W 000°51'4118.0
2019-Nov-17 01:15N 50°30' E 000°12'6316.7
2019-Nov-16 21:30N 51°06' E 001°33'1919.2
2019-Nov-16 20:30N 51°20' E 001°53'1514.5
2019-Nov-16 19:30N 51°21' E 002°16'917.7
2019-Nov-16 19:00N 51°23' E 002°29'714.4
2019-Nov-16 18:30N 51°23' E 002°41'1414.3
2019-Nov-16 17:30N 51°25' E 003°04'713.0
2019-Nov-16 17:00N 51°21' E 003°12'0 0.5
2019-Nov-16 16:00N 51°20' E 003°12'0 0.0
2019-Nov-16 15:30N 51°20' E 003°12'0 0.0
2019-Nov-16 07:30N 51°20' E 003°12'0 0.2
2019-Nov-16 06:30N 51°21' E 003°13'3912.9
2019-Nov-16 03:30N 51°17' E 002°11'917.8
2019-Nov-16 03:00N 51°12' E 001°59'918.2
2019-Nov-16 02:30N 51°08' E 001°46'7818.3
2019-Nov-15 22:15N 50°22' E 000°06'4218.6
2019-Nov-15 20:00N 50°39' W 000°54'1515.2
2019-Nov-15 19:00N 50°46' W 001°15'9 9.4
2019-Nov-15 18:01N 50°53' W 001°24'1 0.5
2019-Nov-15 15:30N 50°54' W 001°26'0 0.0
2019-Nov-15 13:30N 50°54' W 001°26'0 0.0
2019-Nov-15 12:00N 50°54' W 001°26'0 0.0
2019-Nov-15 09:30N 50°54' W 001°26'0 0.0
2019-Nov-15 08:30N 50°54' W 001°26'0 0.0
2019-Nov-15 07:00N 50°54' W 001°26'11 4.3
2019-Nov-15 04:31N 50°46' W 001°15'1212.2
2019-Nov-15 03:30N 50°39' W 000°59'5413.7
2019-Nov-14 23:35N 50°12' W 002°12'1913.8
2019-Nov-14 22:12N 49°56' W 002°28'5018.7
2019-Nov-14 19:30N 49°30' W 003°34'27616.7
2019-Nov-14 03:00N 45°36' W 007°12'406 9.7 280 / 52996.110.8 9.0 6.914.9
2019-Nov-12 08:56N 39°21' W 010°44'2316.4
2019-Nov-12 07:30N 38°58' W 010°50'2516.6
2019-Nov-12 06:00N 38°34' W 010°56'4120.3
2019-Nov-12 04:00N 37°54' W 011°06'0 1.0 350 / 201020.810.8 16.513.919.5
2019-Nov-12 03:31N 37°54' W 011°06'1716.6
2019-Nov-12 02:30N 37°38' W 011°11'1716.7
2019-Nov-12 01:31N 37°21' W 011°15'2516.8
2019-Nov-12 00:00N 36°57' W 011°21'4617.2
2019-Nov-11 21:21N 36°12' W 011°32'3626.3
2019-Nov-11 20:00N 35°36' W 011°36'39815.6 350 / 231021.910.8 19.518.720.9
2019-Nov-10 18:30N 29°07' W 013°14'18 1.8
2019-Nov-10 08:34N 28°58' W 013°32'12 4.8
2019-Nov-10 06:00N 28°48' W 013°41'  

Dump ship's entire track history